sensor_id;sensor_type;location;lat;lon;timestamp;P1;P4;P2;P0;N10;N4;N25;N1;N05;TS
73616;SPS30;61913;52.312;4.858;2023-05-16T00:00:56;7.56;6.58;4.81;2.45;19.89;19.78;19.33;16.97;11.14;0.94
73616;SPS30;61913;52.312;4.858;2023-05-16T00:03:23;7.33;6.39;4.68;2.40;19.47;19.36;18.93;16.66;10.99;0.93
73616;SPS30;61913;52.312;4.858;2023-05-16T00:05:50;7.01;6.13;4.52;2.37;19.19;19.09;18.68;16.54;11.10;0.93
73616;SPS30;61913;52.312;4.858;2023-05-16T00:08:17;6.31;5.52;4.10;2.19;17.74;17.66;17.29;15.40;10.49;0.91
73616;SPS30;61913;52.312;4.858;2023-05-16T00:10:44;6.34;5.58;4.22;2.36;19.14;19.05;18.70;16.88;11.91;0.87
73616;SPS30;61913;52.312;4.858;2023-05-16T00:13:10;6.48;5.68;4.24;2.31;18.69;18.60;18.23;16.31;11.26;0.89
73616;SPS30;61913;52.312;4.858;2023-05-16T00:15:37;6.19;5.42;4.03;2.16;17.47;17.38;17.03;15.17;10.36;0.90
73616;SPS30;61913;52.312;4.858;2023-05-16T00:18:04;6.74;5.88;4.31;2.22;17.98;17.88;17.48;15.40;10.19;0.93
73616;SPS30;61913;52.312;4.858;2023-05-16T00:20:31;6.99;6.08;4.43;2.23;18.11;18.01;17.58;15.39;10.00;0.95
73616;SPS30;61913;52.312;4.858;2023-05-16T00:22:57;7.43;6.45;4.68;2.32;18.88;18.77;18.32;15.96;10.25;0.95
73616;SPS30;61913;52.312;4.858;2023-05-16T00:25:26;6.67;5.82;4.29;2.24;18.14;18.04;17.65;15.61;10.44;0.91
73616;SPS30;61913;52.312;4.858;2023-05-16T00:27:54;7.29;6.36;4.67;2.42;19.63;19.52;19.09;16.85;11.20;0.91
73616;SPS30;61913;52.312;4.858;2023-05-16T00:30:20;6.96;6.10;4.52;2.41;19.52;19.42;19.02;16.92;11.50;0.89
73616;SPS30;61913;52.312;4.858;2023-05-16T00:32:48;7.29;6.39;4.75;2.55;20.65;20.55;20.13;17.95;12.28;0.89
73616;SPS30;61913;52.312;4.858;2023-05-16T00:35:15;6.31;5.53;4.11;2.21;17.89;17.80;17.44;15.55;10.64;0.88
73616;SPS30;61913;52.312;4.858;2023-05-16T00:37:41;6.81;5.98;4.46;2.42;19.57;19.48;19.09;17.07;11.76;0.88
73616;SPS30;61913;52.312;4.858;2023-05-16T00:40:08;6.86;6.00;4.45;2.37;19.20;19.10;18.71;16.64;11.31;0.89
73616;SPS30;61913;52.312;4.858;2023-05-16T00:42:35;6.23;5.47;4.08;2.21;17.92;17.83;17.48;15.63;10.77;0.89
73616;SPS30;61913;52.312;4.858;2023-05-16T00:45:01;6.53;5.73;4.27;2.32;18.76;18.67;18.30;16.36;11.28;0.88
73616;SPS30;61913;52.312;4.858;2023-05-16T00:47:29;6.32;5.56;4.17;2.30;18.65;18.56;18.21;16.36;11.42;0.86
73616;SPS30;61913;52.312;4.858;2023-05-16T00:49:55;5.08;4.51;3.47;2.05;16.57;16.50;16.24;14.85;10.83;0.82
73616;SPS30;61913;52.312;4.858;2023-05-16T00:52:22;6.15;5.45;4.17;2.42;19.58;19.50;19.17;17.46;12.61;0.83
73616;SPS30;61913;52.312;4.858;2023-05-16T00:54:49;5.81;5.12;3.88;2.19;17.75;17.67;17.35;15.69;11.13;0.85
73616;SPS30;61913;52.312;4.858;2023-05-16T00:57:16;6.20;5.45;4.09;2.26;18.31;18.22;17.88;16.07;11.22;0.86
73616;SPS30;61913;52.312;4.858;2023-05-16T00:59:44;6.12;5.40;4.09;2.32;18.76;18.68;18.35;16.60;11.80;0.84
73616;SPS30;61913;52.312;4.858;2023-05-16T01:02:12;5.43;4.79;3.64;2.08;16.82;16.75;16.46;14.92;10.65;0.85
73616;SPS30;61913;52.312;4.858;2023-05-16T01:04:38;6.20;5.45;4.08;2.23;18.09;18.01;17.66;15.84;11.00;0.88
73616;SPS30;61913;52.312;4.858;2023-05-16T01:07:05;6.27;5.52;4.16;2.32;18.81;18.73;18.38;16.57;11.66;0.86
73616;SPS30;61913;52.312;4.858;2023-05-16T01:09:32;6.15;5.41;4.07;2.27;18.36;18.28;17.94;16.16;11.35;0.87
73616;SPS30;61913;52.312;4.858;2023-05-16T01:12:10;5.59;4.92;3.72;2.09;16.91;16.83;16.52;14.92;10.54;0.83
73616;SPS30;61913;52.312;4.858;2023-05-16T01:20:04;6.21;5.46;4.09;2.25;18.20;18.12;17.77;15.94;11.09;0.87
73616;SPS30;61913;52.312;4.858;2023-05-16T01:27:37;5.79;5.11;3.87;2.19;17.73;17.65;17.34;15.69;11.14;0.85
73616;SPS30;61913;52.312;4.858;2023-05-16T01:30:14;5.81;5.12;3.87;2.17;17.57;17.49;17.17;15.50;10.94;0.84
73616;SPS30;61913;52.312;4.858;2023-05-16T01:32:42;5.81;5.12;3.86;2.16;17.48;17.40;17.08;15.40;10.84;0.86
73616;SPS30;61913;52.312;4.858;2023-05-16T01:35:09;5.62;4.97;3.79;2.18;17.60;17.53;17.23;15.65;11.22;0.83
73616;SPS30;61913;52.312;4.858;2023-05-16T01:37:41;5.82;5.17;3.97;2.34;18.93;18.86;18.55;16.95;12.35;0.80
73616;SPS30;61913;52.312;4.858;2023-05-16T01:40:13;5.36;4.77;3.69;2.22;17.91;17.84;17.56;16.12;11.88;0.79
73616;SPS30;61913;52.312;4.858;2023-05-16T01:42:42;5.41;4.81;3.72;2.22;17.90;17.83;17.55;16.08;11.80;0.80
73616;SPS30;61913;52.312;4.858;2023-05-16T01:47:39;5.47;4.85;3.73;2.20;17.79;17.72;17.44;15.94;11.62;0.82
73616;SPS30;61913;52.312;4.858;2023-05-16T01:52:39;5.58;4.95;3.80;2.23;17.98;17.91;17.61;16.07;11.67;0.80
73616;SPS30;61913;52.312;4.858;2023-05-16T01:55:09;6.93;6.14;4.71;2.75;22.23;22.14;21.78;19.86;14.39;0.81
73616;SPS30;61913;52.312;4.858;2023-05-16T01:57:37;5.34;4.75;3.67;2.20;17.77;17.70;17.43;15.99;11.76;0.78
73616;SPS30;61913;52.312;4.858;2023-05-16T02:00:06;4.84;4.34;3.44;2.17;17.51;17.45;17.22;16.00;12.12;0.76
73616;SPS30;61913;52.312;4.858;2023-05-16T02:02:34;4.52;4.08;3.29;2.18;17.55;17.50;17.30;16.23;12.57;0.73
73616;SPS30;61913;52.312;4.858;2023-05-16T02:05:00;4.71;4.25;3.41;2.23;18.00;17.95;17.73;16.60;12.79;0.74
73616;SPS30;61913;52.312;4.858;2023-05-16T02:07:27;4.79;4.33;3.51;2.35;18.89;18.83;18.62;17.51;13.63;0.71
73616;SPS30;61913;52.312;4.858;2023-05-16T02:09:53;4.70;4.28;3.50;2.38;19.17;19.12;18.91;17.86;14.02;0.71
73616;SPS30;61913;52.312;4.858;2023-05-16T02:12:20;4.89;4.48;3.73;2.63;21.15;21.10;20.90;19.88;15.86;0.69
73616;SPS30;61913;52.312;4.858;2023-05-16T02:14:46;4.77;4.35;3.57;2.46;19.79;19.74;19.54;18.48;14.59;0.71
73616;SPS30;61913;52.312;4.858;2023-05-16T02:17:13;4.51;4.14;3.47;2.48;19.89;19.85;19.67;18.75;15.03;0.67
73616;SPS30;61913;52.312;4.858;2023-05-16T02:19:39;4.01;3.71;3.16;2.35;18.83;18.79;18.65;17.90;14.56;0.63
73616;SPS30;61913;52.312;4.858;2023-05-16T02:22:06;4.55;4.19;3.54;2.58;20.71;20.66;20.49;19.60;15.83;0.64
73616;SPS30;61913;52.312;4.858;2023-05-16T02:24:32;4.73;4.33;3.60;2.53;20.36;20.32;20.13;19.13;15.25;0.67
73616;SPS30;61913;52.312;4.858;2023-05-16T02:26:59;4.42;4.04;3.34;2.34;18.79;18.74;18.56;17.62;13.99;0.68
73616;SPS30;61913;52.312;4.858;2023-05-16T02:29:26;4.97;4.54;3.78;2.66;21.39;21.34;21.14;20.10;16.02;0.69
73616;SPS30;61913;52.312;4.858;2023-05-16T02:31:52;4.80;4.38;3.62;2.52;20.30;20.25;20.06;19.02;15.09;0.71
73616;SPS30;61913;52.312;4.858;2023-05-16T02:34:19;5.24;4.79;3.96;2.77;22.25;22.19;21.98;20.86;16.56;0.71
73616;SPS30;61913;52.312;4.858;2023-05-16T02:36:46;5.01;4.57;3.75;2.59;20.82;20.77;20.56;19.46;15.37;0.71
73616;SPS30;61913;52.312;4.858;2023-05-16T02:39:12;4.80;4.34;3.52;2.35;18.95;18.90;18.69;17.58;13.69;0.73
73616;SPS30;61913;52.312;4.858;2023-05-16T02:41:39;5.05;4.56;3.66;2.40;19.35;19.29;19.06;17.86;13.78;0.73
73616;SPS30;61913;52.312;4.858;2023-05-16T02:44:05;4.84;4.38;3.56;2.38;19.15;19.09;18.88;17.76;13.83;0.71
73616;SPS30;61913;52.312;4.858;2023-05-16T02:46:33;5.21;4.72;3.82;2.54;20.47;20.41;20.18;18.96;14.74;0.72
73616;SPS30;61913;52.312;4.858;2023-05-16T02:49:00;5.18;4.69;3.79;2.51;20.23;20.17;19.93;18.72;14.52;0.73
73616;SPS30;61913;52.312;4.858;2023-05-16T02:51:27;5.05;4.59;3.76;2.57;20.69;20.64;20.42;19.30;15.18;0.71
73616;SPS30;61913;52.312;4.858;2023-05-16T02:53:54;4.67;4.25;3.49;2.40;19.30;19.25;19.06;18.03;14.21;0.71
73616;SPS30;61913;52.312;4.858;2023-05-16T02:56:25;4.61;4.20;3.45;2.37;19.08;19.03;18.84;17.82;14.06;0.72
73616;SPS30;61913;52.312;4.858;2023-05-16T02:58:52;4.81;4.37;3.57;2.43;19.58;19.52;19.32;18.23;14.31;0.72
73616;SPS30;61913;52.312;4.858;2023-05-16T03:01:19;5.06;4.60;3.78;2.59;20.84;20.79;20.57;19.45;15.33;0.70
73616;SPS30;61913;52.312;4.858;2023-05-16T03:03:46;4.48;4.10;3.41;2.40;19.30;19.26;19.08;18.13;14.45;0.68
73616;SPS30;61913;52.312;4.858;2023-05-16T03:06:13;4.38;4.05;3.46;2.56;20.55;20.51;20.35;19.53;15.88;0.63
73616;SPS30;61913;52.312;4.858;2023-05-16T03:08:39;4.38;4.07;3.50;2.63;21.12;21.08;20.93;20.14;16.48;0.63
73616;SPS30;61913;52.312;4.858;2023-05-16T03:11:06;4.42;4.11;3.56;2.71;21.76;21.72;21.58;20.81;17.10;0.61
73616;SPS30;61913;52.312;4.858;2023-05-16T03:13:33;4.15;3.91;3.45;2.73;21.87;21.84;21.72;21.08;17.55;0.59
73616;SPS30;61913;52.312;4.858;2023-05-16T03:15:59;4.31;4.04;3.53;2.74;21.99;21.96;21.83;21.12;17.48;0.60
73616;SPS30;61913;52.312;4.858;2023-05-16T03:18:26;4.55;4.26;3.74;2.92;23.44;23.40;23.26;22.54;18.69;0.60
73616;SPS30;61913;52.312;4.858;2023-05-16T03:20:52;4.50;4.22;3.70;2.88;23.13;23.09;22.95;22.23;18.42;0.61
73616;SPS30;61913;52.312;4.858;2023-05-16T03:23:19;4.46;4.18;3.66;2.85;22.89;22.86;22.72;22.00;18.23;0.60
73616;SPS30;61913;52.312;4.858;2023-05-16T03:25:46;4.08;3.82;3.34;2.59;20.75;20.72;20.59;19.93;16.48;0.61
73616;SPS30;61913;52.312;4.858;2023-05-16T03:28:13;4.73;4.41;3.85;2.96;23.76;23.72;23.57;22.78;18.79;0.61
73616;SPS30;61913;52.312;4.858;2023-05-16T03:30:40;4.58;4.26;3.68;2.80;22.44;22.40;22.25;21.45;17.61;0.62
73616;SPS30;61913;52.312;4.858;2023-05-16T03:33:08;4.39;4.08;3.54;2.70;21.63;21.59;21.45;20.69;17.01;0.62
73616;SPS30;61913;52.312;4.858;2023-05-16T03:35:34;4.38;4.10;3.60;2.81;22.50;22.46;22.33;21.63;17.92;0.60
73616;SPS30;61913;52.312;4.858;2023-05-16T03:38:02;4.68;4.35;3.74;2.82;22.66;22.62;22.46;21.62;17.70;0.66
73616;SPS30;61913;52.312;4.858;2023-05-16T03:40:28;4.47;4.12;3.49;2.55;20.44;20.40;20.23;19.36;15.65;0.68
73616;SPS30;61913;52.312;4.858;2023-05-16T03:42:55;4.48;4.15;3.53;2.61;20.99;20.95;20.79;19.95;16.22;0.67
73616;SPS30;61913;52.312;4.858;2023-05-16T03:45:21;4.26;3.97;3.45;2.64;21.20;21.16;21.02;20.30;16.72;0.63
73616;SPS30;61913;52.312;4.858;2023-05-16T03:47:48;4.23;3.95;3.42;2.61;20.94;20.90;20.76;20.03;16.48;0.63
73616;SPS30;61913;52.312;4.858;2023-05-16T03:50:16;4.92;4.55;3.89;2.89;23.22;23.17;23.00;22.09;17.99;0.67
73616;SPS30;61913;52.312;4.858;2023-05-16T03:52:42;4.54;4.20;3.58;2.66;21.33;21.29;21.13;20.28;16.50;0.68
73616;SPS30;61913;52.312;4.858;2023-05-16T03:55:09;4.73;4.35;3.66;2.64;21.23;21.19;21.01;20.06;16.15;0.68
73616;SPS30;61913;52.312;4.858;2023-05-16T03:57:36;5.12;4.70;3.93;2.80;22.46;22.41;22.21;21.16;16.94;0.69
73616;SPS30;61913;52.312;4.858;2023-05-16T04:00:05;5.37;4.90;4.06;2.83;22.79;22.73;22.51;21.36;16.96;0.71
73616;SPS30;61913;52.312;4.858;2023-05-16T04:02:33;5.43;4.95;4.08;2.83;22.76;22.70;22.47;21.29;16.85;0.70
73616;SPS30;61913;52.312;4.858;2023-05-16T04:05:00;5.25;4.80;3.99;2.82;22.63;22.58;22.37;21.27;16.95;0.69
73616;SPS30;61913;52.312;4.858;2023-05-16T04:07:26;4.75;4.37;3.70;2.69;21.63;21.58;21.41;20.48;16.54;0.66
73616;SPS30;61913;52.312;4.858;2023-05-16T04:09:53;4.57;4.22;3.56;2.60;20.86;20.82;20.65;19.75;15.96;0.66
73616;SPS30;61913;52.312;4.858;2023-05-16T04:12:21;4.53;4.20;3.60;2.69;21.61;21.57;21.41;20.58;16.80;0.64
73616;SPS30;61913;52.312;4.858;2023-05-16T04:14:48;4.33;4.01;3.42;2.54;20.39;20.35;20.19;19.38;15.78;0.65
73616;SPS30;61913;52.312;4.858;2023-05-16T04:17:15;3.91;3.60;3.04;2.21;17.74;17.70;17.56;16.79;13.55;0.66
73616;SPS30;61913;52.312;4.858;2023-05-16T04:19:41;3.96;3.64;3.06;2.19;17.63;17.59;17.44;16.64;13.36;0.67
73616;SPS30;61913;52.312;4.858;2023-05-16T04:22:08;4.13;3.79;3.18;2.28;18.31;18.27;18.11;17.27;13.86;0.69
73616;SPS30;61913;52.312;4.858;2023-05-16T04:24:35;4.10;3.76;3.15;2.26;18.17;18.13;17.97;17.14;13.76;0.67
73616;SPS30;61913;52.312;4.858;2023-05-16T04:27:01;4.33;3.96;3.27;2.28;18.36;18.32;18.14;17.21;13.66;0.70
73616;SPS30;61913;52.312;4.858;2023-05-16T04:29:30;4.63;4.21;3.44;2.35;18.89;18.84;18.65;17.61;13.83;0.72
73616;SPS30;61913;52.312;4.858;2023-05-16T04:31:57;3.95;3.58;2.90;1.94;15.59;15.54;15.37;14.45;11.25;0.73
73616;SPS30;61913;52.312;4.858;2023-05-16T04:34:24;4.21;3.80;3.05;2.00;16.08;16.03;15.84;14.83;11.43;0.73
73616;SPS30;61913;52.312;4.858;2023-05-16T04:36:53;4.45;4.00;3.18;2.03;16.37;16.32;16.11;15.00;11.43;0.75
73616;SPS30;61913;52.312;4.858;2023-05-16T04:39:20;4.61;4.14;3.29;2.11;16.98;16.92;16.70;15.56;11.86;0.75
73616;SPS30;61913;52.312;4.858;2023-05-16T04:41:47;4.19;3.76;2.97;1.87;15.08;15.03;14.83;13.77;10.41;0.76
73616;SPS30;61913;52.312;4.858;2023-05-16T04:44:14;4.53;4.06;3.21;2.02;16.28;16.23;16.01;14.86;11.23;0.77
73616;SPS30;61913;52.312;4.858;2023-05-16T04:46:40;4.53;4.07;3.22;2.05;16.49;16.43;16.22;15.08;11.45;0.76
73616;SPS30;61913;52.312;4.858;2023-05-16T04:49:07;4.30;3.87;3.08;1.98;15.94;15.88;15.68;14.62;11.16;0.75
73616;SPS30;61913;52.312;4.858;2023-05-16T04:51:33;4.15;3.72;2.94;1.86;14.99;14.94;14.74;13.69;10.36;0.76
73616;SPS30;61913;52.312;4.858;2023-05-16T04:54:00;4.34;3.89;3.06;1.92;15.49;15.44;15.23;14.12;10.65;0.77
73616;SPS30;61913;52.312;4.858;2023-05-16T04:56:27;4.48;4.01;3.15;1.97;15.87;15.82;15.60;14.45;10.87;0.77
73616;SPS30;61913;52.312;4.858;2023-05-16T04:58:53;4.53;4.07;3.24;2.07;16.69;16.64;16.42;15.30;11.66;0.76
73616;SPS30;61913;52.312;4.858;2023-05-16T05:01:20;3.93;3.53;2.79;1.77;14.27;14.22;14.03;13.04;9.89;0.77
73616;SPS30;61913;52.312;4.858;2023-05-16T05:03:47;5.23;4.65;3.60;2.16;17.42;17.35;17.08;15.67;11.53;0.81
73616;SPS30;61913;52.312;4.858;2023-05-16T05:06:13;5.08;4.53;3.54;2.16;17.43;17.36;17.11;15.77;11.72;0.80
73616;SPS30;61913;52.312;4.858;2023-05-16T05:08:40;12.74;11.36;8.84;5.38;43.41;43.25;42.61;39.23;29.10;0.79
73616;SPS30;61913;52.312;4.858;2023-05-16T05:11:06;12.05;10.67;8.17;4.76;38.51;38.35;37.71;34.37;24.86;0.84
73616;SPS30;61913;52.312;4.858;2023-05-16T05:13:33;8.11;7.17;5.45;3.13;25.28;25.17;24.73;22.44;16.07;0.84
73616;SPS30;61913;52.312;4.858;2023-05-16T05:15:59;13.05;11.51;8.72;4.94;39.95;39.78;39.07;35.34;25.10;0.86
73616;SPS30;61913;52.312;4.858;2023-05-16T05:18:27;7.65;6.75;5.11;2.89;23.34;23.24;22.82;20.63;14.63;0.86
73616;SPS30;61913;52.312;4.858;2023-05-16T05:20:54;6.42;5.68;4.34;2.52;20.37;20.28;19.94;18.15;13.10;0.84
73616;SPS30;61913;52.312;4.858;2023-05-16T05:23:20;4.61;4.09;3.16;1.87;15.10;15.04;14.80;13.55;9.90;0.82
73616;SPS30;61913;52.312;4.858;2023-05-16T05:25:47;19.08;18.23;16.68;13.94;111.60;111.49;111.07;108.81;92.27;0.65
73616;SPS30;61913;52.312;4.858;2023-05-16T05:28:13;52.91;52.86;52.78;49.81;397.73;397.64;397.51;396.56;348.12;0.47
73616;SPS30;61913;52.312;4.858;2023-05-16T05:30:40;9.51;9.47;9.39;8.78;70.15;70.14;70.10;69.84;61.17;0.49
73616;SPS30;61913;52.312;4.858;2023-05-16T05:33:09;2.21;2.19;2.14;1.97;15.72;15.71;15.70;15.60;13.61;0.50
73616;SPS30;61913;52.312;4.858;2023-05-16T05:35:36;2.69;2.60;2.42;2.08;16.66;16.64;16.60;16.33;13.97;0.56
73616;SPS30;61913;52.312;4.858;2023-05-16T05:38:03;3.85;3.66;3.31;2.71;21.70;21.67;21.58;21.07;17.76;0.61
73616;SPS30;61913;52.312;4.858;2023-05-16T05:40:29;3.06;2.88;2.56;2.04;16.35;16.32;16.24;15.79;13.18;0.63
73616;SPS30;61913;52.312;4.858;2023-05-16T05:42:56;2.82;2.63;2.29;1.77;14.20;14.18;14.09;13.62;11.25;0.65
73616;SPS30;61913;52.312;4.858;2023-05-16T05:45:22;3.02;2.80;2.38;1.77;14.18;14.15;14.04;13.47;10.95;0.67
73616;SPS30;61913;52.312;4.858;2023-05-16T05:47:49;3.63;3.34;2.81;2.04;16.38;16.35;16.21;15.49;12.49;0.69
73616;SPS30;61913;52.312;4.858;2023-05-16T05:50:16;3.01;2.77;2.33;1.68;13.49;13.46;13.35;12.75;10.26;0.68
73616;SPS30;61913;52.312;4.858;2023-05-16T05:52:42;4.68;4.31;3.65;2.67;21.41;21.36;21.19;20.28;16.40;0.67
73616;SPS30;61913;52.312;4.858;2023-05-16T05:55:09;3.97;3.64;3.03;2.14;17.20;17.16;17.00;16.17;12.90;0.69
73616;SPS30;61913;52.312;4.858;2023-05-16T05:57:36;4.16;3.82;3.20;2.29;18.42;18.38;18.22;17.38;13.95;0.70
73616;SPS30;61913;52.312;4.858;2023-05-16T06:00:03;3.63;3.34;2.81;2.03;16.32;16.28;16.15;15.42;12.42;0.69
73616;SPS30;61913;52.312;4.858;2023-05-16T06:02:30;3.40;3.12;2.61;1.87;15.00;14.96;14.83;14.13;11.33;0.69
73616;SPS30;61913;52.312;4.858;2023-05-16T06:04:57;3.29;3.02;2.53;1.81;14.52;14.49;14.36;13.69;10.97;0.68
73616;SPS30;61913;52.312;4.858;2023-05-16T06:07:23;3.26;2.98;2.48;1.75;14.10;14.07;13.94;13.26;10.58;0.69
73616;SPS30;61913;52.312;4.858;2023-05-16T06:09:50;3.69;3.37;2.78;1.93;15.48;15.45;15.29;14.49;11.47;0.69
73616;SPS30;61913;52.312;4.858;2023-05-16T06:12:17;3.64;3.30;2.67;1.78;14.36;14.32;14.16;13.31;10.36;0.72
73616;SPS30;61913;52.312;4.858;2023-05-16T06:14:43;4.24;3.83;3.08;2.03;16.38;16.34;16.15;15.14;11.71;0.73
73616;SPS30;61913;52.312;4.858;2023-05-16T06:17:10;3.72;3.33;2.63;1.65;13.34;13.29;13.11;12.17;9.19;0.77
73616;SPS30;61913;52.312;4.858;2023-05-16T06:19:36;4.02;3.62;2.88;1.84;14.84;14.80;14.61;13.61;10.38;0.76
73616;SPS30;61913;52.312;4.858;2023-05-16T06:22:03;4.08;3.67;2.91;1.85;14.88;14.83;14.64;13.61;10.34;0.76
73616;SPS30;61913;52.312;4.858;2023-05-16T06:24:29;4.00;3.55;2.75;1.64;13.27;13.22;13.01;11.93;8.77;0.82
73616;SPS30;61913;52.312;4.858;2023-05-16T06:26:56;4.24;3.77;2.91;1.74;14.05;14.00;13.78;12.63;9.27;0.82
73616;SPS30;61913;52.312;4.858;2023-05-16T06:29:23;3.29;2.93;2.28;1.39;11.22;11.18;11.01;10.14;7.53;0.81
73616;SPS30;61913;52.312;4.858;2023-05-16T06:31:49;3.31;2.96;2.32;1.44;11.59;11.55;11.38;10.52;7.88;0.80
73616;SPS30;61913;52.312;4.858;2023-05-16T06:34:16;3.80;3.40;2.66;1.63;13.18;13.13;12.94;11.95;8.92;0.81
73616;SPS30;61913;52.312;4.858;2023-05-16T06:36:43;3.45;3.09;2.42;1.50;12.12;12.07;11.90;11.01;8.25;0.79
73616;SPS30;61913;52.312;4.858;2023-05-16T06:39:10;3.56;3.17;2.45;1.47;11.89;11.85;11.66;10.71;7.88;0.81
73616;SPS30;61913;52.312;4.858;2023-05-16T06:41:36;3.35;2.98;2.30;1.37;11.03;10.99;10.81;9.90;7.25;0.81
73616;SPS30;61913;52.312;4.858;2023-05-16T06:44:03;3.08;2.74;2.12;1.27;10.27;10.23;10.07;9.24;6.80;0.81
73616;SPS30;61913;52.312;4.858;2023-05-16T06:46:30;3.21;2.85;2.20;1.31;10.57;10.52;10.36;9.49;6.95;0.82
73616;SPS30;61913;52.312;4.858;2023-05-16T06:48:57;3.34;2.97;2.28;1.35;10.89;10.85;10.68;9.76;7.12;0.82
73616;SPS30;61913;52.312;4.858;2023-05-16T06:51:23;3.53;3.13;2.42;1.45;11.68;11.63;11.45;10.50;7.70;0.82
73616;SPS30;61913;52.312;4.858;2023-05-16T06:53:50;3.25;2.90;2.25;1.35;10.93;10.89;10.73;9.86;7.27;0.81
73616;SPS30;61913;52.312;4.858;2023-05-16T06:56:16;3.59;3.18;2.44;1.43;11.54;11.49;11.30;10.31;7.48;0.83
73616;SPS30;61913;52.312;4.858;2023-05-16T06:58:43;4.07;3.60;2.76;1.60;12.95;12.90;12.68;11.55;8.35;0.84
73616;SPS30;61913;52.312;4.858;2023-05-16T07:01:09;17.74;15.69;11.97;6.90;55.79;55.56;54.60;49.62;35.65;0.85
73616;SPS30;61913;52.312;4.858;2023-05-16T07:03:36;16.51;14.75;11.56;7.15;57.72;57.52;56.70;52.42;39.25;0.83
73616;SPS30;61913;52.312;4.858;2023-05-16T07:06:03;7.69;6.84;5.29;3.17;25.57;25.47;25.07;23.00;16.90;0.86
73616;SPS30;61913;52.312;4.858;2023-05-16T07:08:29;4.81;4.26;3.26;1.91;15.40;15.34;15.08;13.75;9.96;0.87
73616;SPS30;61913;52.312;4.858;2023-05-16T07:10:56;5.02;4.45;3.41;1.99;16.07;16.00;15.74;14.35;10.39;0.86
73616;SPS30;61913;52.312;4.858;2023-05-16T07:13:22;4.63;4.10;3.12;1.80;14.51;14.45;14.20;12.90;9.26;0.88
73616;SPS30;61913;52.312;4.858;2023-05-16T07:15:49;3.93;3.46;2.61;1.46;11.84;11.78;11.57;10.43;7.36;0.89
73616;SPS30;61913;52.312;4.858;2023-05-16T07:18:15;4.75;4.21;3.21;1.85;14.95;14.89;14.63;13.30;9.56;0.87
73616;SPS30;61913;52.312;4.858;2023-05-16T07:20:42;4.17;3.69;2.84;1.67;13.46;13.41;13.19;12.04;8.75;0.86
73616;SPS30;61913;52.312;4.858;2023-05-16T07:23:08;3.69;3.27;2.50;1.46;11.80;11.75;11.56;10.53;7.62;0.85
73616;SPS30;61913;52.312;4.858;2023-05-16T07:25:35;3.55;3.14;2.41;1.41;11.38;11.34;11.15;10.17;7.37;0.85
73616;SPS30;61913;52.312;4.858;2023-05-16T07:28:02;3.39;3.00;2.28;1.31;10.62;10.57;10.39;9.44;6.77;0.85
73616;SPS30;61913;52.312;4.858;2023-05-16T07:30:28;3.25;2.87;2.18;1.24;10.03;9.98;9.81;8.89;6.34;0.85
73616;SPS30;61913;52.312;4.858;2023-05-16T07:32:55;3.74;3.30;2.49;1.40;11.32;11.27;11.06;9.99;7.05;0.88
73616;SPS30;61913;52.312;4.858;2023-05-16T07:35:23;4.27;3.77;2.85;1.60;12.94;12.88;12.65;11.42;8.07;0.88
73616;SPS30;61913;52.312;4.858;2023-05-16T07:37:49;3.89;3.44;2.63;1.53;12.38;12.33;12.13;11.04;7.98;0.86
73616;SPS30;61913;52.312;4.858;2023-05-16T07:40:16;4.49;3.99;3.09;1.84;14.87;14.81;14.58;13.36;9.80;0.84
73616;SPS30;61913;52.312;4.858;2023-05-16T07:42:43;4.31;3.84;2.98;1.81;14.60;14.55;14.33;13.18;9.76;0.83
73616;SPS30;61913;52.312;4.858;2023-05-16T07:45:11;3.87;3.47;2.74;1.73;13.95;13.90;13.72;12.74;9.64;0.81
73616;SPS30;61913;52.312;4.858;2023-05-16T07:47:37;4.06;3.65;2.91;1.88;15.14;15.09;14.90;13.90;10.64;0.79
73616;SPS30;61913;52.312;4.858;2023-05-16T07:50:04;3.58;3.22;2.56;1.64;13.25;13.21;13.04;12.15;9.27;0.78
73616;SPS30;61913;52.312;4.858;2023-05-16T07:52:31;3.76;3.38;2.69;1.72;13.90;13.86;13.68;12.75;9.73;0.78
73616;SPS30;61913;52.312;4.858;2023-05-16T07:54:57;3.67;3.30;2.62;1.68;13.51;13.47;13.29;12.38;9.44;0.77
73616;SPS30;61913;52.312;4.858;2023-05-16T07:57:24;4.21;3.78;3.00;1.92;15.48;15.43;15.23;14.19;10.81;0.77
73616;SPS30;61913;52.312;4.858;2023-05-16T07:59:51;4.55;4.12;3.33;2.22;17.87;17.82;17.62;16.55;12.87;0.75
73616;SPS30;61913;52.312;4.858;2023-05-16T08:02:18;6.53;5.91;4.79;3.19;25.68;25.61;25.31;23.79;18.50;0.77
73616;SPS30;61913;52.312;4.858;2023-05-16T08:04:45;3.89;3.54;2.92;2.02;16.27;16.23;16.07;15.23;12.05;0.76
73616;SPS30;61913;52.312;4.858;2023-05-16T08:07:12;4.93;4.51;3.76;2.67;21.47;21.42;21.23;20.21;16.15;0.74
73616;SPS30;61913;52.312;4.858;2023-05-16T08:09:38;7.39;6.85;5.86;4.37;35.05;34.99;34.73;33.36;27.19;0.70
73616;SPS30;61913;52.312;4.858;2023-05-16T08:12:05;6.25;5.83;5.06;3.87;31.03;30.98;30.78;29.71;24.45;0.69
73616;SPS30;61913;52.312;4.858;2023-05-16T08:14:32;5.47;5.05;4.28;3.14;25.22;25.17;24.97;23.91;19.37;0.71
73616;SPS30;61913;52.312;4.858;2023-05-16T08:16:59;7.54;6.99;5.99;4.47;35.91;35.84;35.58;34.19;27.90;0.70
73616;SPS30;61913;52.312;4.858;2023-05-16T08:19:26;4.44;4.10;3.49;2.57;20.62;20.58;20.42;19.57;15.88;0.70
73616;SPS30;61913;52.312;4.858;2023-05-16T08:21:53;4.26;3.94;3.34;2.45;19.65;19.61;19.45;18.63;15.09;0.70
73616;SPS30;61913;52.312;4.858;2023-05-16T08:24:19;5.25;4.86;4.14;3.07;24.65;24.60;24.42;23.43;19.06;0.71
73616;SPS30;61913;52.312;4.858;2023-05-16T08:26:46;6.25;5.77;4.89;3.58;28.79;28.73;28.50;27.30;22.11;0.73
73616;SPS30;61913;52.312;4.858;2023-05-16T08:29:13;5.86;5.42;4.60;3.39;27.22;27.16;26.95;25.83;20.96;0.73
73616;SPS30;61913;52.312;4.858;2023-05-16T08:31:40;5.71;5.28;4.51;3.35;26.87;26.82;26.62;25.55;20.80;0.71
73616;SPS30;61913;52.312;4.858;2023-05-16T08:34:06;7.21;6.68;5.73;4.29;34.43;34.37;34.12;32.81;26.79;0.70
73616;SPS30;61913;52.312;4.858;2023-05-16T08:36:37;4.74;4.40;3.80;2.87;23.06;23.02;22.86;22.02;18.05;0.71
73616;SPS30;61913;52.312;4.858;2023-05-16T08:39:04;6.91;6.39;5.43;4.01;32.18;32.11;31.86;30.55;24.80;0.72
73616;SPS30;61913;52.312;4.858;2023-05-16T08:41:31;4.87;4.53;3.90;2.95;23.65;23.61;23.45;22.58;18.50;0.71
73616;SPS30;61913;52.312;4.858;2023-05-16T08:43:57;3.99;3.71;3.20;2.43;19.47;19.43;19.30;18.59;15.25;0.69
73616;SPS30;61913;52.312;4.858;2023-05-16T08:46:24;4.47;4.15;3.57;2.69;21.61;21.57;21.41;20.61;16.87;0.69
73616;SPS30;61913;52.312;4.858;2023-05-16T08:48:53;5.71;5.32;4.59;3.49;28.00;27.96;27.77;26.77;21.98;0.70
73616;SPS30;61913;52.312;4.858;2023-05-16T08:51:24;6.29;5.87;5.10;3.91;31.36;31.30;31.10;30.03;24.74;0.70
73616;SPS30;61913;52.312;4.858;2023-05-16T08:54:10;6.90;6.37;5.41;3.98;31.95;31.88;31.63;30.31;24.58;0.73
73616;SPS30;61913;52.312;4.858;2023-05-16T08:56:39;6.75;6.32;5.53;4.30;34.46;34.41;34.20;33.10;27.40;0.68
73616;SPS30;61913;52.312;4.858;2023-05-16T08:59:06;4.04;3.80;3.37;2.67;21.44;21.41;21.29;20.68;17.25;0.67
73616;SPS30;61913;52.312;4.858;2023-05-16T09:01:34;4.83;4.51;3.94;3.06;24.51;24.47;24.32;23.53;19.46;0.68
73616;SPS30;61913;52.312;4.858;2023-05-16T09:04:01;4.75;4.42;3.84;2.93;23.50;23.46;23.31;22.49;18.50;0.68
73616;SPS30;61913;52.312;4.858;2023-05-16T09:06:29;6.67;6.24;5.47;4.26;34.16;34.11;33.91;32.83;27.19;0.65
73616;SPS30;61913;52.312;4.858;2023-05-16T09:08:56;3.92;3.67;3.23;2.52;20.18;20.15;20.03;19.40;16.08;0.67
73616;SPS30;61913;52.312;4.858;2023-05-16T09:11:23;6.23;5.79;5.00;3.78;30.36;30.31;30.10;29.00;23.78;0.69
73616;SPS30;61913;52.312;4.858;2023-05-16T09:13:49;5.49;5.19;4.66;3.78;30.28;30.24;30.10;29.34;24.64;0.62
73616;SPS30;61913;52.312;4.858;2023-05-16T09:16:17;3.56;3.38;3.06;2.51;20.11;20.09;20.00;19.54;16.47;0.64
73616;SPS30;61913;52.312;4.858;2023-05-16T09:18:45;3.66;3.42;3.00;2.33;18.70;18.67;18.56;17.96;14.87;0.67
73616;SPS30;61913;52.312;4.858;2023-05-16T09:21:12;3.90;3.63;3.14;2.39;19.16;19.12;19.00;18.31;15.04;0.67
73616;SPS30;61913;52.312;4.858;2023-05-16T09:23:42;3.17;2.95;2.54;1.91;15.35;15.32;15.21;14.65;11.99;0.69
73616;SPS30;61913;52.312;4.858;2023-05-16T09:26:09;4.35;4.03;3.44;2.56;20.54;20.50;20.35;19.54;15.91;0.70